Time;durP1;ratioP1;P1;durP2;ratioP2;P2;SDS_P1;SDS_P2;PMS_P1;PMS_P2;Temp;Humidity;BMP_temperature;BMP_pressure;BME280_temperature;BME280_humidity;BME280_pressure;Samples;Min_cycle;Max_cycle;Signal;HPM_P1;HPM_P2
2022/07/28 00:00:50;;;;;;;;;;;;;;;29.80;49.28;98315.91;2082092;28;19928;-51
2022/07/28 00:01:51;;;;;;;;;;;;;;;29.76;49.39;98304.72;2082483;28;20028;-51
2022/07/28 00:02:52;;;;;;;;;;;;;;;29.77;49.16;98311.00;2081866;28;19925;-49
2022/07/28 00:03:53;;;;;;;;;;;;;;;29.65;49.53;98305.91;2080852;28;20015;-51
2022/07/28 00:04:54;;;;;;;;;;;;;;;29.52;49.83;98304.59;2079519;28;19937;-53
2022/07/28 00:05:55;;;;;;;;;;;;;;;29.49;49.69;98310.63;2080210;28;20924;-50
2022/07/28 00:06:56;;;;;;;;;;;;;;;29.50;49.69;98312.25;2075824;28;19936;-49
2022/07/28 00:07:57;;;;;;;;;;;;;;;29.49;49.65;98305.16;2077792;28;19935;-51
2022/07/28 00:08:58;;;;;;;;;;;;;;;29.45;49.66;98304.09;2080256;28;19925;-51
2022/07/28 00:10:00;;;;;;;;;;;;;;;29.48;49.77;98303.53;2081142;28;20044;-52
2022/07/28 00:11:00;;;;;;;;;;;;;;;29.49;49.81;98299.69;2082743;28;19933;-52
2022/07/28 00:12:02;;;;;;;;;;;;;;;29.53;49.48;98300.78;2081332;28;20437;-52
2022/07/28 00:13:04;;;;;;;;;;;;;;;29.50;49.79;98308.69;2081699;28;20437;-48
2022/07/28 00:14:05;;;;;;;;;;;;;;;29.51;49.60;98304.88;2079524;28;19947;-49
2022/07/28 00:15:06;;;;;;;;;;;;;;;29.51;49.48;98302.16;2079035;28;19933;-52
2022/07/28 00:16:08;;;;;;;;;;;;;;;29.53;49.52;98295.31;2078565;28;19935;-52
2022/07/28 00:17:08;;;;;;;;;;;;;;;29.48;49.63;98300.81;2076503;28;19929;-52
2022/07/28 00:18:10;;;;;;;;;;;;;;;29.52;49.82;98304.59;2080467;28;19976;-52
2022/07/28 00:19:11;;;;;;;;;;;;;;;29.46;49.80;98303.00;2078663;28;19936;-52
2022/07/28 00:20:12;;;;;;;;;;;;;;;29.34;50.17;98297.06;2080375;28;19979;-52
2022/07/28 00:21:13;;;;;;;;;;;;;;;29.38;49.94;98300.88;2079041;28;20126;-53
2022/07/28 00:22:14;;;;;;;;;;;;;;;29.41;49.69;98297.56;2076925;28;19933;-48
2022/07/28 00:23:15;;;;;;;;;;;;;;;29.45;49.22;98295.91;2079992;28;19940;-49
2022/07/28 00:24:16;;;;;;;;;;;;;;;29.43;49.45;98298.09;2078015;28;20286;-51
2022/07/28 00:25:17;;;;;;;;;;;;;;;29.40;49.62;98290.47;2080052;28;20625;-52
2022/07/28 00:26:18;;;;;;;;;;;;;;;29.38;49.81;98303.59;2077479;28;20043;-51
2022/07/28 00:27:19;;;;;;;;;;;;;;;29.18;50.85;98297.16;2075587;28;19933;-51
2022/07/28 00:28:22;;;;;;;;;;;;;;;29.10;51.62;98307.84;2079848;28;19964;-52
2022/07/28 00:29:23;;;;;;;;;;;;;;;29.16;51.32;98302.06;2079281;28;19932;-50
2022/07/28 00:30:24;;;;;;;;;;;;;;;29.21;50.97;98297.69;2077342;28;19939;-53
2022/07/28 00:31:25;;;;;;;;;;;;;;;29.30;50.73;98306.91;2081520;28;19986;-51
2022/07/28 00:32:26;;;;;;;;;;;;;;;29.29;50.77;98297.09;2079853;28;19932;-52
2022/07/28 00:33:27;;;;;;;;;;;;;;;29.28;50.69;98298.19;2082792;28;19933;-50
2022/07/28 00:34:28;;;;;;;;;;;;;;;29.32;50.50;98300.06;2080336;28;19935;-52
2022/07/28 00:35:29;;;;;;;;;;;;;;;29.33;50.59;98298.97;2081966;28;19936;-53
2022/07/28 00:36:30;;;;;;;;;;;;;;;29.36;50.45;98300.31;2078769;28;21310;-50
2022/07/28 00:37:31;;;;;;;;;;;;;;;29.37;50.39;98301.97;2075413;28;19955;-49
2022/07/28 00:38:33;;;;;;;;;;;;;;;29.38;50.48;98298.13;2074974;28;19929;-49
2022/07/28 00:39:33;;;;;;;;;;;;;;;29.38;50.57;98303.59;2080726;28;19925;-50
2022/07/28 00:41:54;;;;;;;;;;;;;;;29.40;50.71;98304.13;2081365;28;19929;-52
2022/07/28 00:42:54;;;;;;;;;;;;;;;29.32;50.84;98305.53;2081176;28;20490;-52
2022/07/28 00:43:57;;;;;;;;;;;;;;;29.32;51.00;98302.00;2082264;28;19935;-49
2022/07/28 00:44:58;;;;;;;;;;;;;;;29.31;51.01;98305.81;2079631;28;19925;-50
2022/07/28 00:45:59;;;;;;;;;;;;;;;29.29;51.12;98302.56;2080650;28;20146;-52
2022/07/28 00:47:00;;;;;;;;;;;;;;;29.26;50.92;98305.88;2076010;28;19929;-50
2022/07/28 00:48:02;;;;;;;;;;;;;;;29.25;51.14;98307.75;2079610;28;20393;-50
2022/07/28 00:49:03;;;;;;;;;;;;;;;29.26;51.03;98311.31;2081196;28;19936;-51
2022/07/28 00:50:05;;;;;;;;;;;;;;;29.25;51.02;98310.47;2079350;28;19979;-49
2022/07/28 00:51:06;;;;;;;;;;;;;;;29.23;51.13;98315.44;2081368;28;19967;-50
2022/07/28 00:52:09;;;;;;;;;;;;;;;29.19;51.48;98306.16;2079439;28;19925;-50
2022/07/28 00:53:09;;;;;;;;;;;;;;;29.18;51.41;98305.34;2078991;28;19925;-51
2022/07/28 00:54:11;;;;;;;;;;;;;;;29.23;51.20;98311.88;2081611;28;19931;-50
2022/07/28 00:55:12;;;;;;;;;;;;;;;29.24;51.23;98302.59;2080851;28;19932;-50
2022/07/28 00:56:13;;;;;;;;;;;;;;;29.17;51.44;98302.91;2079865;28;20053;-51
2022/07/28 00:57:14;;;;;;;;;;;;;;;29.16;51.50;98310.25;2081785;28;19936;-52
2022/07/28 00:58:15;;;;;;;;;;;;;;;29.14;51.46;98304.28;2079818;28;19925;-52
2022/07/28 00:59:18;;;;;;;;;;;;;;;29.20;51.69;98304.22;2079087;28;19925;-53
2022/07/28 01:00:19;;;;;;;;;;;;;;;29.13;51.66;98307.28;2082266;28;19929;-52
2022/07/28 01:01:21;;;;;;;;;;;;;;;29.14;51.94;98303.44;2081923;28;20598;-51
2022/07/28 01:02:21;;;;;;;;;;;;;;;29.10;51.87;98305.13;2080759;28;19929;-52
2022/07/28 01:03:23;;;;;;;;;;;;;;;29.13;51.46;98312.75;2080246;28;20510;-52
2022/07/28 01:04:24;;;;;;;;;;;;;;;29.16;51.63;98299.34;2079007;28;19940;-52
2022/07/28 01:05:30;;;;;;;;;;;;;;;29.13;51.75;98302.63;2079648;28;19924;-50
2022/07/28 01:06:37;;;;;;;;;;;;;;;29.06;52.18;98301.31;2079663;28;19925;-50
2022/07/28 01:07:43;;;;;;;;;;;;;;;29.06;51.92;98304.03;2075725;28;19996;-52
2022/07/28 01:08:51;;;;;;;;;;;;;;;29.05;52.27;98307.88;2078513;28;19925;-52
2022/07/28 01:09:59;;;;;;;;;;;;;;;29.08;52.24;98305.38;2080473;28;19963;-52
2022/07/28 01:11:03;;;;;;;;;;;;;;;29.12;52.01;98305.66;2081045;28;20322;-52
2022/07/28 01:12:11;;;;;;;;;;;;;;;29.13;52.00;98299.91;2081204;28;19936;-51
2022/07/28 01:13:16;;;;;;;;;;;;;;;29.13;51.92;98299.91;2081963;28;19937;-52
2022/07/28 01:14:23;;;;;;;;;;;;;;;29.16;51.72;98302.06;2080763;28;19929;-52
2022/07/28 01:15:28;;;;;;;;;;;;;;;29.18;51.59;98299.88;2077459;28;19929;-50
2022/07/28 01:16:29;;;;;;;;;;;;;;;29.20;52.01;98298.78;2080901;28;19924;-50
2022/07/28 01:17:34;;;;;;;;;;;;;;;29.13;52.48;98290.91;2075095;28;20622;-52
2022/07/28 01:18:41;;;;;;;;;;;;;;;28.80;53.47;98298.66;2079178;28;19929;-52
2022/07/28 01:19:45;;;;;;;;;;;;;;;28.83;53.84;98300.00;2081403;28;19932;-51
2022/07/28 01:20:47;;;;;;;;;;;;;;;28.90;53.08;98292.34;2079735;28;20380;-52
2022/07/28 01:21:50;;;;;;;;;;;;;;;28.90;53.00;98292.34;2077587;28;19932;-52
2022/07/28 01:23:05;;;;;;;;;;;;;;;28.90;53.38;98293.16;2077738;28;19929;-50
2022/07/28 01:24:13;;;;;;;;;;;;;;;28.96;52.87;98294.78;2079134;28;20393;-52
2022/07/28 01:25:20;;;;;;;;;;;;;;;28.99;52.52;98290.66;2080596;28;19939;-50
2022/07/28 01:26:37;;;;;;;;;;;;;;;29.05;52.47;98295.03;2081360;28;19925;-50
2022/07/28 01:27:46;;;;;;;;;;;;;;;29.10;52.22;98292.28;2080271;28;20036;-49
2022/07/28 01:28:57;;;;;;;;;;;;;;;29.13;52.24;98288.16;2073873;28;19933;-50
2022/07/28 01:30:04;;;;;;;;;;;;;;;29.10;52.71;98286.81;2078949;28;19925;-52
2022/07/28 01:31:08;;;;;;;;;;;;;;;29.09;52.66;98295.31;2080858;28;19929;-50
2022/07/28 01:32:13;;;;;;;;;;;;;;;29.07;53.00;98286.56;2081254;28;19936;-52
2022/07/28 01:33:17;;;;;;;;;;;;;;;29.04;53.14;98293.41;2079970;28;19928;-49
2022/07/28 01:34:22;;;;;;;;;;;;;;;29.07;52.48;98287.38;2079512;28;20016;-53
2022/07/28 01:35:27;;;;;;;;;;;;;;;29.05;52.69;98294.22;2079958;28;19928;-51
2022/07/28 01:36:30;;;;;;;;;;;;;;;29.01;52.62;98299.41;2078290;28;19979;-51
2022/07/28 01:37:32;;;;;;;;;;;;;;;28.86;53.26;98294.84;2078918;28;19925;-52
2022/07/28 01:38:34;;;;;;;;;;;;;;;28.86;53.33;98294.00;2078061;28;19925;-49
2022/07/28 01:39:37;;;;;;;;;;;;;;;28.96;52.87;98288.50;2081692;28;19925;-51
2022/07/28 01:40:39;;;;;;;;;;;;;;;28.95;52.54;98290.41;2081033;28;19929;-49
2022/07/28 01:41:41;;;;;;;;;;;;;;;29.00;52.48;98288.75;2081913;28;19952;-52
2022/07/28 01:42:47;;;;;;;;;;;;;;;29.00;52.46;98291.47;2080457;28;20525;-50
2022/07/28 01:43:53;;;;;;;;;;;;;;;29.10;52.54;98289.53;2078122;28;19932;-52
2022/07/28 01:44:56;;;;;;;;;;;;;;;29.02;53.02;98295.56;2076988;28;19935;-51
2022/07/28 01:45:59;;;;;;;;;;;;;;;29.03;52.96;98296.38;2080345;28;19933;-52
2022/07/28 01:47:03;;;;;;;;;;;;;;;28.84;53.35;98298.94;2080425;28;19936;-49
2022/07/28 01:48:06;;;;;;;;;;;;;;;28.89;53.20;98290.69;2080526;28;19936;-53
2022/07/28 01:49:09;;;;;;;;;;;;;;;28.96;53.17;98288.50;2081286;28;19928;-52
2022/07/28 01:50:13;;;;;;;;;;;;;;;29.03;52.92;98290.91;2081537;28;19947;-52
2022/07/28 01:51:14;;;;;;;;;;;;;;;29.09;52.61;98296.13;2081947;28;19932;-56
2022/07/28 01:52:17;;;;;;;;;;;;;;;29.11;52.57;98291.19;2078553;28;20168;-53
2022/07/28 01:53:18;;;;;;;;;;;;;;;29.11;52.61;98293.94;2080918;28;19936;-54
2022/07/28 01:54:20;;;;;;;;;;;;;;;29.11;52.71;98288.47;2078317;28;19933;-55
2022/07/28 01:55:22;;;;;;;;;;;;;;;29.14;52.67;98290.63;2077592;28;20561;-57
2022/07/28 01:56:24;;;;;;;;;;;;;;;29.15;52.33;98295.00;2081094;28;19928;-52
2022/07/28 01:57:27;;;;;;;;;;;;;;;29.15;52.37;98286.78;2081682;28;19932;-53
2022/07/28 01:58:30;;;;;;;;;;;;;;;29.16;52.25;98285.69;2080072;28;19931;-54
2022/07/28 01:59:31;;;;;;;;;;;;;;;29.15;52.19;98288.72;2075475;28;19940;-55
2022/07/28 02:00:33;;;;;;;;;;;;;;;29.18;52.17;98290.88;2080803;28;19929;-52
2022/07/28 02:01:35;;;;;;;;;;;;;;;29.18;52.28;98288.97;2082186;28;19932;-56
2022/07/28 02:02:39;;;;;;;;;;;;;;;29.21;52.08;98287.59;2080340;28;19929;-54
2022/07/28 02:03:40;;;;;;;;;;;;;;;29.22;52.11;98296.59;2076281;28;19936;-50
2022/07/28 02:04:43;;;;;;;;;;;;;;;29.21;52.07;98287.59;2077960;28;20410;-51
2022/07/28 02:05:44;;;;;;;;;;;;;;;29.22;52.06;98285.66;2080306;28;20024;-50
2022/07/28 02:06:47;;;;;;;;;;;;;;;29.24;52.05;98283.47;2077111;28;19928;-50
2022/07/28 02:07:48;;;;;;;;;;;;;;;29.25;51.84;98287.81;2077120;28;19925;-50
2022/07/28 02:08:50;;;;;;;;;;;;;;;29.23;51.97;98279.94;2080708;28;19929;-49
2022/07/28 02:09:52;;;;;;;;;;;;;;;29.20;52.08;98282.38;2079653;28;19932;-50
2022/07/28 02:12:12;;;;;;;;;;;;;;;29.23;52.27;98284.59;2062083;28;20016;-51
2022/07/28 02:13:13;;;;;;;;;;;;;;;29.23;52.25;98281.84;2081258;28;19933;-52
2022/07/28 02:14:15;;;;;;;;;;;;;;;29.24;52.13;98275.28;2079754;28;19943;-52
2022/07/28 02:15:18;;;;;;;;;;;;;;;29.24;52.38;98280.75;2079580;28;20596;-52
2022/07/28 02:16:21;;;;;;;;;;;;;;;29.11;52.75;98282.16;2081081;28;19925;-51
2022/07/28 02:17:25;;;;;;;;;;;;;;;28.84;53.55;98279.84;2078729;28;19925;-49
2022/07/28 02:18:29;;;;;;;;;;;;;;;28.78;53.63;98275.47;2081367;28;19982;-49
2022/07/28 02:19:30;;;;;;;;;;;;;;;28.82;53.44;98274.63;2078610;28;19932;-51
2022/07/28 02:20:32;;;;;;;;;;;;;;;28.85;53.48;98276.00;2078599;28;19935;-52
2022/07/28 02:21:33;;;;;;;;;;;;;;;28.90;53.18;98276.78;2075186;28;20556;-50
2022/07/28 02:22:36;;;;;;;;;;;;;;;28.93;52.88;98278.94;2081821;28;19928;-54
2022/07/28 02:23:38;;;;;;;;;;;;;;;29.02;52.52;98275.63;2080459;28;20201;-55
2022/07/28 02:24:41;;;;;;;;;;;;;;;28.91;53.15;98275.69;2078919;28;19924;-54
2022/07/28 02:25:41;;;;;;;;;;;;;;;28.93;53.01;98283.59;2077820;28;19932;-56
2022/07/28 02:26:46;;;;;;;;;;;;;;;28.90;53.02;98275.97;2081984;28;19925;-49
2022/07/28 02:27:48;;;;;;;;;;;;;;;28.80;53.44;98281.47;2080925;28;19999;-51
2022/07/28 02:28:51;;;;;;;;;;;;;;;28.82;53.58;98291.00;2078456;28;19929;-55
2022/07/28 02:29:55;;;;;;;;;;;;;;;28.80;53.42;98278.75;2078998;28;19925;-53
2022/07/28 02:31:00;;;;;;;;;;;;;;;28.62;53.97;98280.19;2079760;28;19933;-54
2022/07/28 02:32:03;;;;;;;;;;;;;;;28.49;54.40;98281.56;2080868;28;20518;-54
2022/07/28 02:33:08;;;;;;;;;;;;;;;28.42;54.61;98281.88;2077213;28;19933;-54
2022/07/28 02:34:11;;;;;;;;;;;;;;;28.33;55.12;98282.69;2076937;28;19939;-54
2022/07/28 02:35:16;;;;;;;;;;;;;;;28.32;54.81;98281.06;2078541;28;20046;-52
2022/07/28 02:36:19;;;;;;;;;;;;;;;28.33;54.58;98279.94;2076540;28;19929;-55
2022/07/28 02:37:22;;;;;;;;;;;;;;;28.34;54.61;98274.22;2074028;28;19929;-54
2022/07/28 02:38:24;;;;;;;;;;;;;;;28.36;54.45;98282.13;2080709;28;19929;-55
2022/07/28 02:39:27;;;;;;;;;;;;;;;28.34;54.84;98285.13;2075898;28;19983;-53
2022/07/28 02:40:32;;;;;;;;;;;;;;;28.41;54.20;98285.66;2078695;28;19940;-55
2022/07/28 02:41:37;;;;;;;;;;;;;;;28.42;54.33;98287.34;2079741;28;20354;-52
2022/07/28 02:42:39;;;;;;;;;;;;;;;28.45;54.59;98288.69;2080829;28;19924;-55
2022/07/28 02:43:43;;;;;;;;;;;;;;;28.41;54.41;98284.84;2077913;28;19925;-53
2022/07/28 02:44:46;;;;;;;;;;;;;;;28.41;54.60;98282.91;2077060;28;19924;-56
2022/07/28 02:45:51;;;;;;;;;;;;;;;28.41;54.19;98277.47;2078844;28;19928;-55
2022/07/28 02:46:54;;;;;;;;;;;;;;;28.40;54.40;98284.03;2080921;28;19925;-54
2022/07/28 02:47:58;;;;;;;;;;;;;;;28.38;54.62;98282.66;2076187;28;19936;-56
2022/07/28 02:49:02;;;;;;;;;;;;;;;28.43;54.50;98290.88;2079120;28;19924;-52
2022/07/28 02:50:06;;;;;;;;;;;;;;;28.35;54.64;98281.31;2079331;28;19929;-51
2022/07/28 02:51:08;;;;;;;;;;;;;;;28.26;55.37;98282.97;2079273;28;19960;-55
2022/07/28 02:52:11;;;;;;;;;;;;;;;28.27;55.00;98281.88;2075962;28;19940;-53
2022/07/28 02:53:13;;;;;;;;;;;;;;;28.20;55.61;98278.63;2079313;28;19925;-50
2022/07/28 02:54:17;;;;;;;;;;;;;;;28.13;55.47;98281.63;2080558;28;20526;-54
2022/07/28 02:55:18;;;;;;;;;;;;;;;28.17;55.33;98277.25;2079356;28;19925;-52
2022/07/28 02:56:20;;;;;;;;;;;;;;;28.32;55.03;98281.88;2081185;28;20767;-52
2022/07/28 02:57:22;;;;;;;;;;;;;;;28.33;55.21;98269.03;2081514;28;20031;-52
2022/07/28 02:58:25;;;;;;;;;;;;;;;28.52;54.47;98275.56;2080081;28;19933;-55
2022/07/28 02:59:26;;;;;;;;;;;;;;;28.62;54.23;98275.53;2077519;28;19929;-53
2022/07/28 03:00:29;;;;;;;;;;;;;;;28.70;54.06;98271.44;2076928;28;19933;-50
2022/07/28 03:01:30;;;;;;;;;;;;;;;28.75;53.63;98274.09;2076200;28;19959;-53
2022/07/28 03:02:33;;;;;;;;;;;;;;;28.82;53.34;98273.81;2080952;28;20684;-52
2022/07/28 03:03:35;;;;;;;;;;;;;;;28.79;53.47;98266.19;2082275;28;19989;-53
2022/07/28 03:04:55;;;;;;;;;;;;;;;28.81;53.36;98269.47;2079080;28;19929;-55
2022/07/28 03:06:00;;;;;;;;;;;;;;;28.85;53.42;98274.06;2079543;28;20459;-53
2022/07/28 03:07:00;;;;;;;;;;;;;;;28.87;53.23;98271.88;2080565;28;19924;-55
2022/07/28 03:08:02;;;;;;;;;;;;;;;28.89;53.30;98277.06;2081962;28;20024;-50
2022/07/28 03:09:03;;;;;;;;;;;;;;;28.89;53.45;98274.31;2081168;28;19956;-52
2022/07/28 03:10:05;;;;;;;;;;;;;;;28.89;53.35;98266.13;2081524;28;19925;-54
2022/07/28 03:11:06;;;;;;;;;;;;;;;28.88;53.24;98273.50;2078371;28;19925;-55
2022/07/28 03:12:08;;;;;;;;;;;;;;;28.89;53.22;98275.16;2084198;28;20723;-51
2022/07/28 03:13:10;;;;;;;;;;;;;;;28.89;53.33;98274.31;2083551;28;19925;-49
2022/07/28 03:14:10;;;;;;;;;;;;;;;28.88;53.62;98272.69;2081038;28;20417;-55
2022/07/28 03:15:12;;;;;;;;;;;;;;;28.91;53.56;98280.31;2081265;28;19935;-54
2022/07/28 03:16:13;;;;;;;;;;;;;;;28.91;53.27;98280.31;2083750;28;19935;-54
2022/07/28 03:17:15;;;;;;;;;;;;;;;28.92;53.41;98281.97;2083048;28;20497;-53
2022/07/28 03:18:16;;;;;;;;;;;;;;;28.91;53.19;98283.06;2083739;28;19932;-53
2022/07/28 03:19:17;;;;;;;;;;;;;;;28.92;53.28;98279.25;2082361;28;19929;-48
2022/07/28 03:20:18;;;;;;;;;;;;;;;28.93;52.99;98278.94;2081325;28;20016;-54
2022/07/28 03:21:20;;;;;;;;;;;;;;;28.98;52.90;98277.31;2077506;28;20767;-51
2022/07/28 03:22:22;;;;;;;;;;;;;;;28.99;52.86;98277.00;2081463;28;20484;-54
2022/07/28 03:23:26;;;;;;;;;;;;;;;29.02;52.99;98283.81;2081377;28;19948;-54
2022/07/28 03:24:28;;;;;;;;;;;;;;;29.00;53.01;98281.38;2083711;28;19970;-54
2022/07/28 03:25:39;;;;;;;;;;;;;;;29.00;53.03;98286.81;2083441;28;19932;-53
2022/07/28 03:26:42;;;;;;;;;;;;;;;29.05;52.91;98289.56;2083334;28;19925;-53
2022/07/28 03:27:45;;;;;;;;;;;;;;;29.05;52.93;98288.75;2083560;28;19976;-54
2022/07/28 03:28:47;;;;;;;;;;;;;;;29.05;52.71;98289.56;2080227;28;21146;-53
2022/07/28 03:29:50;;;;;;;;;;;;;;;29.06;52.66;98291.22;2078921;28;20008;-53
2022/07/28 03:30:54;;;;;;;;;;;;;;;29.01;53.04;98293.13;2081614;28;19955;-54
2022/07/28 03:31:56;;;;;;;;;;;;;;;28.90;53.17;98290.44;2083753;28;19929;-53
2022/07/28 03:32:58;;;;;;;;;;;;;;;28.67;53.83;98289.16;2084067;28;19928;-54
2022/07/28 03:34:00;;;;;;;;;;;;;;;28.69;53.92;98292.41;2080544;28;19925;-51
2022/07/28 03:35:01;;;;;;;;;;;;;;;28.81;53.72;98294.03;2082839;28;19940;-54
2022/07/28 03:36:05;;;;;;;;;;;;;;;28.84;53.57;98282.56;2077813;28;20011;-53
2022/07/28 03:37:11;;;;;;;;;;;;;;;28.86;53.33;98283.91;2079745;28;20917;-51
2022/07/28 03:38:13;;;;;;;;;;;;;;;28.83;53.58;98286.38;2079878;28;19940;-54
2022/07/28 03:39:16;;;;;;;;;;;;;;;28.84;53.63;98293.47;2083002;28;19925;-51
2022/07/28 03:40:19;;;;;;;;;;;;;;;28.82;53.57;98296.47;2082656;28;19925;-53
2022/07/28 03:41:20;;;;;;;;;;;;;;;28.71;53.89;98292.97;2083799;28;19950;-53
2022/07/28 03:42:22;;;;;;;;;;;;;;;28.71;53.81;98294.88;2083481;28;19928;-58
2022/07/28 03:43:24;;;;;;;;;;;;;;;28.65;53.91;98288.63;2083903;28;20009;-50
2022/07/28 03:44:26;;;;;;;;;;;;;;;28.63;54.04;98293.53;2081745;28;20011;-54
2022/07/28 03:45:27;;;;;;;;;;;;;;;28.64;53.65;98289.72;2082811;28;20403;-53
2022/07/28 03:46:28;;;;;;;;;;;;;;;28.63;53.84;98290.81;2081762;28;19936;-53
2022/07/28 03:47:29;;;;;;;;;;;;;;;28.51;54.25;98290.31;2083443;28;19924;-54
2022/07/28 03:48:31;;;;;;;;;;;;;;;28.46;54.26;98295.78;2082517;28;19997;-53
2022/07/28 03:49:31;;;;;;;;;;;;;;;28.43;54.28;98297.13;2083088;28;19928;-53
2022/07/28 03:50:33;;;;;;;;;;;;;;;28.34;54.79;98289.78;2076147;28;20356;-50
2022/07/28 03:51:34;;;;;;;;;;;;;;;28.33;54.75;98283.47;2080557;28;20528;-49
2022/07/28 03:52:37;;;;;;;;;;;;;;;28.35;54.75;98283.22;2080767;28;19979;-54
2022/07/28 03:53:37;;;;;;;;;;;;;;;28.36;54.41;98282.13;2082095;28;19936;-53
2022/07/28 03:54:39;;;;;;;;;;;;;;;28.36;54.39;98287.56;2081908;28;20023;-53
2022/07/28 03:55:40;;;;;;;;;;;;;;;28.37;54.75;98287.31;2080285;28;19936;-53
2022/07/28 03:56:41;;;;;;;;;;;;;;;28.34;54.51;98284.31;2081752;28;20032;-54
2022/07/28 03:57:42;;;;;;;;;;;;;;;28.33;54.76;98288.94;2080285;28;19940;-54
2022/07/28 03:58:44;;;;;;;;;;;;;;;28.39;54.26;98284.28;2082263;28;21237;-53
2022/07/28 03:59:45;;;;;;;;;;;;;;;28.33;54.66;98288.94;2081287;28;19932;-54
2022/07/28 04:00:46;;;;;;;;;;;;;;;28.39;54.56;98293.31;2082387;28;19924;-54
2022/07/28 04:01:47;;;;;;;;;;;;;;;28.33;54.78;98285.41;2079772;28;20674;-53
2022/07/28 04:02:48;;;;;;;;;;;;;;;28.29;54.51;98288.69;2080942;28;19982;-53
2022/07/28 04:03:49;;;;;;;;;;;;;;;28.38;54.22;98290.84;2082860;28;19990;-53
2022/07/28 04:04:51;;;;;;;;;;;;;;;28.47;54.37;98283.75;2078822;28;19933;-52
2022/07/28 04:05:53;;;;;;;;;;;;;;;28.42;54.15;98289.22;2077329;28;20014;-55
2022/07/28 04:06:55;;;;;;;;;;;;;;;28.42;54.31;98284.59;2081029;28;19932;-54
2022/07/28 04:07:57;;;;;;;;;;;;;;;28.38;54.41;98285.41;2081083;28;20393;-51
2022/07/28 04:08:58;;;;;;;;;;;;;;;28.28;54.80;98289.78;2080972;28;19924;-53
2022/07/28 04:09:59;;;;;;;;;;;;;;;28.36;54.40;98288.41;2078665;28;20517;-54
2022/07/28 04:11:01;;;;;;;;;;;;;;;28.45;54.16;98286.78;2081749;28;19925;-53
2022/07/28 04:12:01;;;;;;;;;;;;;;;28.44;54.11;98289.78;2082756;28;20290;-54
2022/07/28 04:13:03;;;;;;;;;;;;;;;28.41;54.38;98293.03;2081515;28;19929;-54
2022/07/28 04:14:03;;;;;;;;;;;;;;;28.48;54.35;98299.88;2081818;28;19929;-51
2022/07/28 04:15:11;;;;;;;;;;;;;;;28.39;54.25;98297.94;2082095;28;19931;-55
2022/07/28 04:16:13;;;;;;;;;;;;;;;28.41;54.38;98303.94;2081727;28;19924;-54
2022/07/28 04:17:14;;;;;;;;;;;;;;;28.36;54.63;98296.59;2081670;28;19952;-54
2022/07/28 04:18:16;;;;;;;;;;;;;;;28.26;54.65;98297.41;2082776;28;20335;-50
2022/07/28 04:19:16;;;;;;;;;;;;;;;28.22;55.15;98300.97;2081342;28;19925;-54
2022/07/28 04:20:18;;;;;;;;;;;;;;;28.15;55.10;98298.53;2078518;28;20878;-52
2022/07/28 04:21:21;;;;;;;;;;;;;;;28.17;54.95;98301.81;2081325;28;19925;-53
2022/07/28 04:22:23;;;;;;;;;;;;;;;28.23;54.72;98297.97;2078293;28;19925;-53
2022/07/28 04:23:25;;;;;;;;;;;;;;;28.22;54.73;98299.06;2080844;28;19944;-54
2022/07/28 04:24:26;;;;;;;;;;;;;;;28.21;55.08;98297.41;2079458;28;20017;-54
2022/07/28 04:25:27;;;;;;;;;;;;;;;28.24;54.81;98306.97;2081323;28;20590;-53
2022/07/28 04:26:29;;;;;;;;;;;;;;;28.22;54.70;98301.81;2081374;28;20003;-54
2022/07/28 04:27:29;;;;;;;;;;;;;;;28.31;54.36;98314.88;2076973;28;19936;-53
2022/07/28 04:28:31;;;;;;;;;;;;;;;28.21;54.58;98310.25;2079922;28;19935;-54
2022/07/28 04:29:31;;;;;;;;;;;;;;;28.28;54.42;98311.59;2073141;28;19925;-54
2022/07/28 04:30:33;;;;;;;;;;;;;;;28.30;54.20;98314.03;2076589;28;20656;-54
2022/07/28 04:31:33;;;;;;;;;;;;;;;28.22;54.34;98309.16;2080622;28;19933;-52
2022/07/28 04:32:37;;;;;;;;;;;;;;;28.26;54.42;98318.41;2080526;28;20498;-54
2022/07/28 04:33:38;;;;;;;;;;;;;;;28.27;54.25;98309.13;2080797;28;19981;-54
2022/07/28 04:34:39;;;;;;;;;;;;;;;28.30;53.97;98316.75;2079763;28;19928;-52
2022/07/28 04:35:40;;;;;;;;;;;;;;;28.39;54.04;98319.75;2076867;28;20006;-55
2022/07/28 04:36:42;;;;;;;;;;;;;;;28.37;53.89;98316.50;2080459;28;19939;-52
2022/07/28 04:37:43;;;;;;;;;;;;;;;28.38;53.86;98323.59;2075487;28;20050;-53
2022/07/28 04:38:46;;;;;;;;;;;;;;;28.35;54.13;98324.13;2077589;28;19932;-53
2022/07/28 04:39:47;;;;;;;;;;;;;;;28.37;53.91;98314.59;2081128;28;19939;-52
2022/07/28 04:40:49;;;;;;;;;;;;;;;28.35;53.93;98321.41;2081335;28;19959;-52
2022/07/28 04:41:51;;;;;;;;;;;;;;;28.39;54.07;98319.75;2080247;28;19925;-54
2022/07/28 04:42:52;;;;;;;;;;;;;;;28.37;53.97;98321.97;2078874;28;19952;-51
2022/07/28 04:43:53;;;;;;;;;;;;;;;28.38;53.91;98329.03;2081004;28;19932;-55
2022/07/28 04:44:55;;;;;;;;;;;;;;;28.39;54.02;98319.75;2080274;28;19975;-51
2022/07/28 04:45:55;;;;;;;;;;;;;;;28.34;53.85;98323.31;2074785;28;20012;-53
2022/07/28 04:46:57;;;;;;;;;;;;;;;28.37;53.97;98322.78;2074270;28;20500;-54
2022/07/28 04:47:58;;;;;;;;;;;;;;;28.39;54.00;98327.94;2079372;28;20487;-52
2022/07/28 04:48:59;;;;;;;;;;;;;;;28.31;54.27;98323.88;2080356;28;19929;-53
2022/07/28 04:50:00;;;;;;;;;;;;;;;28.19;54.70;98326.88;2075903;28;20515;-53
2022/07/28 04:51:01;;;;;;;;;;;;;;;28.18;54.40;98322.50;2077609;28;19925;-53
2022/07/28 04:52:02;;;;;;;;;;;;;;;28.28;54.18;98327.97;2080516;28;19929;-52
2022/07/28 04:53:04;;;;;;;;;;;;;;;28.19;54.19;98321.41;2081285;28;19925;-52
2022/07/28 04:54:06;;;;;;;;;;;;;;;28.18;54.45;98329.88;2078359;28;19932;-54
2022/07/28 04:55:08;;;;;;;;;;;;;;;28.16;54.67;98332.88;2078143;28;20021;-53
2022/07/28 04:56:08;;;;;;;;;;;;;;;28.17;54.38;98330.97;2080300;28;20426;-52
2022/07/28 04:57:10;;;;;;;;;;;;;;;28.19;54.34;98332.31;2079634;28;19931;-53
2022/07/28 04:58:11;;;;;;;;;;;;;;;28.25;54.14;98335.84;2073636;28;19939;-53
2022/07/28 04:59:14;;;;;;;;;;;;;;;28.25;53.91;98339.44;2079305;28;19979;-55
2022/07/28 05:00:15;;;;;;;;;;;;;;;28.25;54.25;98333.97;2081567;28;19982;-54
2022/07/28 05:01:17;;;;;;;;;;;;;;;28.21;54.10;98334.78;2078509;28;19936;-53
2022/07/28 05:02:17;;;;;;;;;;;;;;;28.21;54.17;98334.78;2081539;28;23251;-54
2022/07/28 05:03:19;;;;;;;;;;;;;;;28.26;53.83;98343.78;2079852;28;19976;-53
2022/07/28 05:04:19;;;;;;;;;;;;;;;28.25;53.78;98342.16;2078169;28;20866;-54
2022/07/28 05:05:21;;;;;;;;;;;;;;;28.17;54.31;98339.16;2072866;28;19928;-53
2022/07/28 05:06:21;;;;;;;;;;;;;;;28.22;53.94;98339.97;2077757;28;19940;-54
2022/07/28 05:07:23;;;;;;;;;;;;;;;28.23;53.74;98343.53;2076796;28;20036;-54
2022/07/28 05:08:24;;;;;;;;;;;;;;;28.23;54.03;98338.88;2077411;28;19939;-54
2022/07/28 05:09:27;;;;;;;;;;;;;;;28.23;53.80;98335.34;2072678;28;20591;-52
2022/07/28 05:10:27;;;;;;;;;;;;;;;28.29;53.87;98345.97;2078600;28;20290;-54
2022/07/28 05:11:29;;;;;;;;;;;;;;;28.25;53.88;98339.44;2075771;28;19929;-53
2022/07/28 05:12:29;;;;;;;;;;;;;;;28.21;54.12;98343.78;2075516;28;19931;-54
2022/07/28 05:13:31;;;;;;;;;;;;;;;28.28;53.60;98347.06;2058648;28;20628;-53
2022/07/28 05:14:31;;;;;;;;;;;;;;;28.21;54.23;98342.97;2078816;28;20035;-52
2022/07/28 05:15:33;;;;;;;;;;;;;;;28.20;54.03;98333.16;2078064;28;20661;-50
2022/07/28 05:16:33;;;;;;;;;;;;;;;28.20;54.17;98344.88;2080908;28;19933;-51
2022/07/28 05:17:35;;;;;;;;;;;;;;;28.23;54.11;98347.06;2072902;28;20489;-53
2022/07/28 05:18:36;;;;;;;;;;;;;;;28.26;53.87;98338.31;2072481;28;20047;-53
2022/07/28 05:19:37;;;;;;;;;;;;;;;28.22;54.05;98342.72;2073038;28;19929;-54
2022/07/28 05:20:38;;;;;;;;;;;;;;;28.28;53.76;98347.06;2080648;28;20414;-53
2022/07/28 05:21:39;;;;;;;;;;;;;;;28.25;53.89;98344.03;2079438;28;19935;-50
2022/07/28 05:22:41;;;;;;;;;;;;;;;28.27;53.91;98341.88;2074363;28;19933;-54
2022/07/28 05:23:42;;;;;;;;;;;;;;;28.31;54.27;98342.16;2073883;28;20019;-55
2022/07/28 05:24:44;;;;;;;;;;;;;;;28.35;53.95;98348.69;2075100;28;19936;-53
2022/07/28 05:25:46;;;;;;;;;;;;;;;28.34;54.22;98338.88;2074578;28;19928;-54
2022/07/28 05:26:46;;;;;;;;;;;;;;;28.37;53.70;98338.31;2076503;28;19932;-54
2022/07/28 05:27:49;;;;;;;;;;;;;;;28.42;53.51;98339.16;2079037;28;20032;-55